sensor_id;sensor_type;location;lat;lon;timestamp;temperature;humidity
12125;DHT22;6126;57.908;16.490;2022-10-22T00:01:17;8.80;97.40
12125;DHT22;6126;57.908;16.490;2022-10-22T00:03:44;9.10;97.10
12125;DHT22;6126;57.908;16.490;2022-10-22T00:06:11;8.80;96.90
12125;DHT22;6126;57.908;16.490;2022-10-22T00:08:36;8.70;96.90
12125;DHT22;6126;57.908;16.490;2022-10-22T00:11:13;8.80;97.10
12125;DHT22;6126;57.908;16.490;2022-10-22T00:13:41;8.60;97.00
12125;DHT22;6126;57.908;16.490;2022-10-22T00:16:08;8.60;97.00
12125;DHT22;6126;57.908;16.490;2022-10-22T00:18:34;8.90;97.10
12125;DHT22;6126;57.908;16.490;2022-10-22T00:21:01;9.00;97.10
12125;DHT22;6126;57.908;16.490;2022-10-22T00:23:27;8.70;97.00
12125;DHT22;6126;57.908;16.490;2022-10-22T00:25:53;8.90;97.10
12125;DHT22;6126;57.908;16.490;2022-10-22T00:28:19;8.90;97.30
12125;DHT22;6126;57.908;16.490;2022-10-22T00:30:46;8.70;97.10
12125;DHT22;6126;57.908;16.490;2022-10-22T00:33:12;8.70;97.10
12125;DHT22;6126;57.908;16.490;2022-10-22T00:35:37;8.70;97.00
12125;DHT22;6126;57.908;16.490;2022-10-22T00:38:03;8.90;97.20
12125;DHT22;6126;57.908;16.490;2022-10-22T00:40:30;8.70;97.10
12125;DHT22;6126;57.908;16.490;2022-10-22T00:42:56;8.70;97.10
12125;DHT22;6126;57.908;16.490;2022-10-22T00:45:26;8.80;97.10
12125;DHT22;6126;57.908;16.490;2022-10-22T00:48:04;8.90;97.20
12125;DHT22;6126;57.908;16.490;2022-10-22T00:53:18;8.70;97.20
12125;DHT22;6126;57.908;16.490;2022-10-22T00:55:48;8.90;97.40
12125;DHT22;6126;57.908;16.490;2022-10-22T00:58:17;8.90;97.20
12125;DHT22;6126;57.908;16.490;2022-10-22T01:00:46;8.60;97.20
12125;DHT22;6126;57.908;16.490;2022-10-22T01:03:13;8.70;97.20
12125;DHT22;6126;57.908;16.490;2022-10-22T01:05:47;8.90;97.30
12125;DHT22;6126;57.908;16.490;2022-10-22T01:08:42;8.70;97.30
12125;DHT22;6126;57.908;16.490;2022-10-22T01:18:43;9.00;97.40
12125;DHT22;6126;57.908;16.490;2022-10-22T01:21:22;8.70;97.40
12125;DHT22;6126;57.908;16.490;2022-10-22T01:24:04;8.50;97.20
12125;DHT22;6126;57.908;16.490;2022-10-22T01:27:12;8.50;97.20
12125;DHT22;6126;57.908;16.490;2022-10-22T01:29:49;8.70;97.30
12125;DHT22;6126;57.908;16.490;2022-10-22T01:32:22;8.70;97.30
12125;DHT22;6126;57.908;16.490;2022-10-22T01:34:54;8.60;97.30
12125;DHT22;6126;57.908;16.490;2022-10-22T01:37:28;8.90;97.50
12125;DHT22;6126;57.908;16.490;2022-10-22T01:39:58;9.00;97.50
12125;DHT22;6126;57.908;16.490;2022-10-22T01:42:25;8.80;97.30
12125;DHT22;6126;57.908;16.490;2022-10-22T01:44:51;8.90;97.50
12125;DHT22;6126;57.908;16.490;2022-10-22T01:53:14;8.80;97.50
12125;DHT22;6126;57.908;16.490;2022-10-22T01:56:29;8.70;97.50
12125;DHT22;6126;57.908;16.490;2022-10-22T02:01:58;8.90;97.50
12125;DHT22;6126;57.908;16.490;2022-10-22T02:04:54;8.90;97.50
12125;DHT22;6126;57.908;16.490;2022-10-22T02:07:26;8.90;97.50
12125;DHT22;6126;57.908;16.490;2022-10-22T02:09:57;8.80;97.50
12125;DHT22;6126;57.908;16.490;2022-10-22T02:12:27;9.00;97.60
12125;DHT22;6126;57.908;16.490;2022-10-22T02:14:56;8.80;97.60
12125;DHT22;6126;57.908;16.490;2022-10-22T02:17:28;8.90;97.70
12125;DHT22;6126;57.908;16.490;2022-10-22T02:20:09;8.90;97.70
12125;DHT22;6126;57.908;16.490;2022-10-22T02:22:39;9.10;97.70
12125;DHT22;6126;57.908;16.490;2022-10-22T02:25:06;9.20;97.60
12125;DHT22;6126;57.908;16.490;2022-10-22T02:27:48;9.00;97.50
12125;DHT22;6126;57.908;16.490;2022-10-22T02:30:20;9.10;97.60
12125;DHT22;6126;57.908;16.490;2022-10-22T02:33:05;9.20;97.70
12125;DHT22;6126;57.908;16.490;2022-10-22T02:35:33;9.40;97.90
12125;DHT22;6126;57.908;16.490;2022-10-22T02:38:00;9.30;97.80
12125;DHT22;6126;57.908;16.490;2022-10-22T02:40:29;9.30;97.80
12125;DHT22;6126;57.908;16.490;2022-10-22T02:42:56;9.40;97.70
12125;DHT22;6126;57.908;16.490;2022-10-22T02:45:22;9.40;97.70
12125;DHT22;6126;57.908;16.490;2022-10-22T02:47:48;9.60;97.70
12125;DHT22;6126;57.908;16.490;2022-10-22T02:50:14;9.50;97.70
12125;DHT22;6126;57.908;16.490;2022-10-22T02:52:40;9.70;97.70
12125;DHT22;6126;57.908;16.490;2022-10-22T02:55:07;9.60;97.70
12125;DHT22;6126;57.908;16.490;2022-10-22T02:57:33;9.50;97.70
12125;DHT22;6126;57.908;16.490;2022-10-22T02:59:58;9.60;97.70
12125;DHT22;6126;57.908;16.490;2022-10-22T03:02:24;9.70;97.70
12125;DHT22;6126;57.908;16.490;2022-10-22T03:04:50;9.60;97.60
12125;DHT22;6126;57.908;16.490;2022-10-22T03:07:16;9.60;97.60
12125;DHT22;6126;57.908;16.490;2022-10-22T03:09:42;9.80;97.70
12125;DHT22;6126;57.908;16.490;2022-10-22T03:12:08;9.70;97.70
12125;DHT22;6126;57.908;16.490;2022-10-22T03:14:34;9.70;97.70
12125;DHT22;6126;57.908;16.490;2022-10-22T03:17:00;9.60;97.60
12125;DHT22;6126;57.908;16.490;2022-10-22T03:19:26;9.70;97.70
12125;DHT22;6126;57.908;16.490;2022-10-22T03:22:00;10.00;97.30
12125;DHT22;6126;57.908;16.490;2022-10-22T03:24:33;9.80;97.70
12125;DHT22;6126;57.908;16.490;2022-10-22T03:27:01;9.60;97.60
12125;DHT22;6126;57.908;16.490;2022-10-22T03:29:28;9.90;97.80
12125;DHT22;6126;57.908;16.490;2022-10-22T03:31:57;10.00;97.30
12125;DHT22;6126;57.908;16.490;2022-10-22T03:34:23;10.00;97.30
12125;DHT22;6126;57.908;16.490;2022-10-22T03:36:50;9.80;97.80
12125;DHT22;6126;57.908;16.490;2022-10-22T03:39:17;10.00;97.30
12125;DHT22;6126;57.908;16.490;2022-10-22T03:41:45;9.90;97.80
12125;DHT22;6126;57.908;16.490;2022-10-22T03:44:15;9.90;97.90
12125;DHT22;6126;57.908;16.490;2022-10-22T03:46:42;9.80;97.80
12125;DHT22;6126;57.908;16.490;2022-10-22T03:49:08;9.80;97.80
12125;DHT22;6126;57.908;16.490;2022-10-22T03:51:34;9.90;97.80
12125;DHT22;6126;57.908;16.490;2022-10-22T03:54:01;9.70;97.80
12125;DHT22;6126;57.908;16.490;2022-10-22T03:56:27;9.90;97.90
12125;DHT22;6126;57.908;16.490;2022-10-22T03:58:55;10.00;97.40
12125;DHT22;6126;57.908;16.490;2022-10-22T04:01:22;10.00;97.50
12125;DHT22;6126;57.908;16.490;2022-10-22T04:03:48;9.90;97.90
12125;DHT22;6126;57.908;16.490;2022-10-22T04:06:14;9.80;97.90
12125;DHT22;6126;57.908;16.490;2022-10-22T04:08:41;10.00;97.50
12125;DHT22;6126;57.908;16.490;2022-10-22T04:11:09;10.00;97.50
12125;DHT22;6126;57.908;16.490;2022-10-22T04:13:36;9.70;97.90
12125;DHT22;6126;57.908;16.490;2022-10-22T04:18:46;9.90;98.00
12125;DHT22;6126;57.908;16.490;2022-10-22T04:21:15;10.10;97.50
12125;DHT22;6126;57.908;16.490;2022-10-22T04:23:51;10.00;97.50
12125;DHT22;6126;57.908;16.490;2022-10-22T04:26:19;9.80;97.90
12125;DHT22;6126;57.908;16.490;2022-10-22T04:28:47;10.00;97.50
12125;DHT22;6126;57.908;16.490;2022-10-22T04:31:17;9.90;98.00
12125;DHT22;6126;57.908;16.490;2022-10-22T04:33:46;9.90;98.00
12125;DHT22;6126;57.908;16.490;2022-10-22T04:36:16;10.00;97.50
12125;DHT22;6126;57.908;16.490;2022-10-22T04:38:44;9.90;98.00
12125;DHT22;6126;57.908;16.490;2022-10-22T04:41:17;9.90;98.00
12125;DHT22;6126;57.908;16.490;2022-10-22T04:43:45;9.90;98.00
12125;DHT22;6126;57.908;16.490;2022-10-22T04:46:14;10.00;97.50
12125;DHT22;6126;57.908;16.490;2022-10-22T04:48:42;10.00;97.50
12125;DHT22;6126;57.908;16.490;2022-10-22T04:51:11;9.90;98.00
12125;DHT22;6126;57.908;16.490;2022-10-22T04:53:39;10.00;97.50
12125;DHT22;6126;57.908;16.490;2022-10-22T04:58:35;10.00;97.60
12125;DHT22;6126;57.908;16.490;2022-10-22T05:01:21;10.00;97.60
12125;DHT22;6126;57.908;16.490;2022-10-22T05:03:58;9.90;98.00
12125;DHT22;6126;57.908;16.490;2022-10-22T05:06:27;9.70;98.00
12125;DHT22;6126;57.908;16.490;2022-10-22T05:08:56;10.10;97.70
12125;DHT22;6126;57.908;16.490;2022-10-22T05:11:32;9.90;98.00
12125;DHT22;6126;57.908;16.490;2022-10-22T05:14:02;9.80;98.00
12125;DHT22;6126;57.908;16.490;2022-10-22T05:16:30;10.00;97.60
12125;DHT22;6126;57.908;16.490;2022-10-22T05:18:58;10.00;97.60
12125;DHT22;6126;57.908;16.490;2022-10-22T05:21:25;10.00;97.70
12125;DHT22;6126;57.908;16.490;2022-10-22T05:23:52;10.10;97.70
12125;DHT22;6126;57.908;16.490;2022-10-22T05:26:21;10.00;97.60
12125;DHT22;6126;57.908;16.490;2022-10-22T05:28:48;10.10;97.70
12125;DHT22;6126;57.908;16.490;2022-10-22T05:31:16;10.20;97.70
12125;DHT22;6126;57.908;16.490;2022-10-22T05:33:43;9.90;98.10
12125;DHT22;6126;57.908;16.490;2022-10-22T05:36:16;9.80;98.40
12125;DHT22;6126;57.908;16.490;2022-10-22T05:38:46;10.30;98.10
12125;DHT22;6126;57.908;16.490;2022-10-22T05:41:17;10.20;97.70
12125;DHT22;6126;57.908;16.490;2022-10-22T05:43:46;9.90;98.10
12125;DHT22;6126;57.908;16.490;2022-10-22T05:46:14;10.00;97.60
12125;DHT22;6126;57.908;16.490;2022-10-22T05:48:42;10.20;97.70
12125;DHT22;6126;57.908;16.490;2022-10-22T05:51:11;9.90;98.10
12125;DHT22;6126;57.908;16.490;2022-10-22T05:53:39;10.20;97.70
12125;DHT22;6126;57.908;16.490;2022-10-22T05:56:15;10.20;97.70
12125;DHT22;6126;57.908;16.490;2022-10-22T05:58:42;10.10;97.70
12125;DHT22;6126;57.908;16.490;2022-10-22T06:01:14;10.00;97.70
12125;DHT22;6126;57.908;16.490;2022-10-22T06:03:43;10.20;97.80
12125;DHT22;6126;57.908;16.490;2022-10-22T06:06:25;10.00;97.70
12125;DHT22;6126;57.908;16.490;2022-10-22T06:08:54;10.30;97.80
12125;DHT22;6126;57.908;16.490;2022-10-22T06:11:24;10.20;97.70
12125;DHT22;6126;57.908;16.490;2022-10-22T06:13:50;10.30;97.80
12125;DHT22;6126;57.908;16.490;2022-10-22T06:16:16;10.20;97.70
12125;DHT22;6126;57.908;16.490;2022-10-22T06:18:42;10.00;97.70
12125;DHT22;6126;57.908;16.490;2022-10-22T06:21:11;10.20;97.70
12125;DHT22;6126;57.908;16.490;2022-10-22T06:23:40;10.30;98.10
12125;DHT22;6126;57.908;16.490;2022-10-22T06:26:07;10.20;97.70
12125;DHT22;6126;57.908;16.490;2022-10-22T06:28:34;10.10;97.70
12125;DHT22;6126;57.908;16.490;2022-10-22T06:31:02;10.10;97.70
12125;DHT22;6126;57.908;16.490;2022-10-22T06:33:31;10.40;97.80
12125;DHT22;6126;57.908;16.490;2022-10-22T06:36:16;10.10;97.70
12125;DHT22;6126;57.908;16.490;2022-10-22T06:38:46;10.20;97.70
12125;DHT22;6126;57.908;16.490;2022-10-22T06:41:16;10.30;97.70
12125;DHT22;6126;57.908;16.490;2022-10-22T06:43:43;10.30;98.00
12125;DHT22;6126;57.908;16.490;2022-10-22T06:46:13;10.20;97.70
12125;DHT22;6126;57.908;16.490;2022-10-22T06:48:41;10.50;97.80
12125;DHT22;6126;57.908;16.490;2022-10-22T06:51:09;10.40;97.70
12125;DHT22;6126;57.908;16.490;2022-10-22T06:53:37;10.30;97.70
12125;DHT22;6126;57.908;16.490;2022-10-22T06:56:09;10.60;97.80
12125;DHT22;6126;57.908;16.490;2022-10-22T06:58:37;10.30;97.70
12125;DHT22;6126;57.908;16.490;2022-10-22T07:01:05;10.30;97.70
12125;DHT22;6126;57.908;16.490;2022-10-22T07:03:34;10.40;97.70
12125;DHT22;6126;57.908;16.490;2022-10-22T07:06:01;10.40;97.70
12125;DHT22;6126;57.908;16.490;2022-10-22T07:08:29;10.40;97.70
12125;DHT22;6126;57.908;16.490;2022-10-22T07:11:03;10.60;97.80
12125;DHT22;6126;57.908;16.490;2022-10-22T07:13:32;10.40;97.70
12125;DHT22;6126;57.908;16.490;2022-10-22T07:15:58;10.60;97.80
12125;DHT22;6126;57.908;16.490;2022-10-22T07:18:24;10.40;97.70
12125;DHT22;6126;57.908;16.490;2022-10-22T07:20:50;10.40;97.70
12125;DHT22;6126;57.908;16.490;2022-10-22T07:23:16;10.50;97.70
12125;DHT22;6126;57.908;16.490;2022-10-22T07:25:41;10.60;97.80
12125;DHT22;6126;57.908;16.490;2022-10-22T07:28:08;10.50;97.70
12125;DHT22;6126;57.908;16.490;2022-10-22T07:30:34;10.50;98.10
12125;DHT22;6126;57.908;16.490;2022-10-22T07:33:01;10.50;97.70
12125;DHT22;6126;57.908;16.490;2022-10-22T07:35:27;10.70;97.80
12125;DHT22;6126;57.908;16.490;2022-10-22T07:37:53;10.50;97.70
12125;DHT22;6126;57.908;16.490;2022-10-22T07:40:19;10.30;97.60
12125;DHT22;6126;57.908;16.490;2022-10-22T07:42:45;10.40;97.70
12125;DHT22;6126;57.908;16.490;2022-10-22T07:45:11;10.70;97.80
12125;DHT22;6126;57.908;16.490;2022-10-22T07:47:37;10.40;97.70
12125;DHT22;6126;57.908;16.490;2022-10-22T07:50:03;10.50;97.70
12125;DHT22;6126;57.908;16.490;2022-10-22T07:52:30;10.50;97.70
12125;DHT22;6126;57.908;16.490;2022-10-22T07:54:56;10.70;98.10
12125;DHT22;6126;57.908;16.490;2022-10-22T07:57:22;10.60;97.70
12125;DHT22;6126;57.908;16.490;2022-10-22T07:59:48;10.80;97.90
12125;DHT22;6126;57.908;16.490;2022-10-22T08:02:14;10.40;97.60
12125;DHT22;6126;57.908;16.490;2022-10-22T08:04:39;10.80;97.80
12125;DHT22;6126;57.908;16.490;2022-10-22T08:07:05;10.60;97.70
12125;DHT22;6126;57.908;16.490;2022-10-22T08:09:31;10.60;97.70
12125;DHT22;6126;57.908;16.490;2022-10-22T08:11:57;10.50;97.60
12125;DHT22;6126;57.908;16.490;2022-10-22T08:14:23;10.60;97.70
12125;DHT22;6126;57.908;16.490;2022-10-22T08:16:49;10.70;97.80
12125;DHT22;6126;57.908;16.490;2022-10-22T08:19:15;10.60;97.70
12125;DHT22;6126;57.908;16.490;2022-10-22T08:21:44;10.60;97.70
12125;DHT22;6126;57.908;16.490;2022-10-22T08:24:10;10.60;97.70
12125;DHT22;6126;57.908;16.490;2022-10-22T08:26:37;10.60;97.70
12125;DHT22;6126;57.908;16.490;2022-10-22T08:29:03;10.40;97.60
12125;DHT22;6126;57.908;16.490;2022-10-22T08:31:29;10.30;97.50
12125;DHT22;6126;57.908;16.490;2022-10-22T08:33:55;10.40;97.60
12125;DHT22;6126;57.908;16.490;2022-10-22T08:36:21;10.80;97.80
12125;DHT22;6126;57.908;16.490;2022-10-22T08:38:46;10.80;97.80
12125;DHT22;6126;57.908;16.490;2022-10-22T08:41:16;10.70;97.80
12125;DHT22;6126;57.908;16.490;2022-10-22T08:49:53;10.60;97.70
12125;DHT22;6126;57.908;16.490;2022-10-22T08:52:21;10.60;97.80
12125;DHT22;6126;57.908;16.490;2022-10-22T08:54:54;10.70;97.80
12125;DHT22;6126;57.908;16.490;2022-10-22T09:00:15;10.40;97.70
12125;DHT22;6126;57.908;16.490;2022-10-22T09:08:08;10.70;97.90
12125;DHT22;6126;57.908;16.490;2022-10-22T09:10:45;10.50;97.80
12125;DHT22;6126;57.908;16.490;2022-10-22T09:13:16;10.50;97.80
12125;DHT22;6126;57.908;16.490;2022-10-22T09:16:00;10.60;97.80
12125;DHT22;6126;57.908;16.490;2022-10-22T09:26:56;10.60;97.90
12125;DHT22;6126;57.908;16.490;2022-10-22T09:29:28;10.80;98.00
12125;DHT22;6126;57.908;16.490;2022-10-22T09:31:57;10.90;98.00
12125;DHT22;6126;57.908;16.490;2022-10-22T09:34:22;10.50;97.80
12125;DHT22;6126;57.908;16.490;2022-10-22T09:37:03;10.80;98.00
12125;DHT22;6126;57.908;16.490;2022-10-22T09:39:33;10.70;97.90
12125;DHT22;6126;57.908;16.490;2022-10-22T09:42:05;10.70;97.90
12125;DHT22;6126;57.908;16.490;2022-10-22T09:44:34;10.70;97.90
12125;DHT22;6126;57.908;16.490;2022-10-22T09:52:34;10.70;97.90
12125;DHT22;6126;57.908;16.490;2022-10-22T09:55:15;10.80;98.00
12125;DHT22;6126;57.908;16.490;2022-10-22T09:57:43;10.90;98.00
12125;DHT22;6126;57.908;16.490;2022-10-22T10:00:18;11.00;98.10
12125;DHT22;6126;57.908;16.490;2022-10-22T10:02:44;10.90;98.00
12125;DHT22;6126;57.908;16.490;2022-10-22T10:05:19;11.00;98.00
12125;DHT22;6126;57.908;16.490;2022-10-22T10:07:49;10.80;97.90
12125;DHT22;6126;57.908;16.490;2022-10-22T10:10:39;11.10;98.10
12125;DHT22;6126;57.908;16.490;2022-10-22T10:16:26;11.30;98.20
12125;DHT22;6126;57.908;16.490;2022-10-22T10:36:39;11.50;98.10
12125;DHT22;6126;57.908;16.490;2022-10-22T10:39:51;11.40;98.00
12125;DHT22;6126;57.908;16.490;2022-10-22T10:42:43;11.50;98.10
12125;DHT22;6126;57.908;16.490;2022-10-22T10:48:18;11.30;98.00
12125;DHT22;6126;57.908;16.490;2022-10-22T11:00:13;11.50;98.20
12125;DHT22;6126;57.908;16.490;2022-10-22T11:03:20;11.40;98.10
12125;DHT22;6126;57.908;16.490;2022-10-22T11:06:31;11.60;98.20
12125;DHT22;6126;57.908;16.490;2022-10-22T11:14:20;11.60;98.20
12125;DHT22;6126;57.908;16.490;2022-10-22T11:19:57;11.50;98.20
12125;DHT22;6126;57.908;16.490;2022-10-22T11:22:44;11.70;98.60
12125;DHT22;6126;57.908;16.490;2022-10-22T11:25:21;11.30;98.10
12125;DHT22;6126;57.908;16.490;2022-10-22T11:27:59;11.50;98.20
12125;DHT22;6126;57.908;16.490;2022-10-22T11:30:32;11.60;98.20
12125;DHT22;6126;57.908;16.490;2022-10-22T11:33:05;11.50;98.20
12125;DHT22;6126;57.908;16.490;2022-10-22T11:35:38;11.40;98.10
12125;DHT22;6126;57.908;16.490;2022-10-22T11:38:09;11.40;98.10
12125;DHT22;6126;57.908;16.490;2022-10-22T11:41:03;11.20;98.00
12125;DHT22;6126;57.908;16.490;2022-10-22T11:43:34;11.40;98.10
12125;DHT22;6126;57.908;16.490;2022-10-22T11:48:43;11.20;98.00
12125;DHT22;6126;57.908;16.490;2022-10-22T11:51:36;11.10;98.00
12125;DHT22;6126;57.908;16.490;2022-10-22T11:59:46;11.40;98.20
12125;DHT22;6126;57.908;16.490;2022-10-22T12:02:44;11.50;98.30
12125;DHT22;6126;57.908;16.490;2022-10-22T12:08:01;11.20;98.10
12125;DHT22;6126;57.908;16.490;2022-10-22T12:10:59;11.50;98.30
12125;DHT22;6126;57.908;16.490;2022-10-22T12:13:32;11.50;98.30
12125;DHT22;6126;57.908;16.490;2022-10-22T12:16:18;11.20;98.20
12125;DHT22;6126;57.908;16.490;2022-10-22T12:18:52;11.10;98.10
12125;DHT22;6126;57.908;16.490;2022-10-22T12:21:21;11.10;98.20
12125;DHT22;6126;57.908;16.490;2022-10-22T12:23:49;11.40;98.40
12125;DHT22;6126;57.908;16.490;2022-10-22T12:26:27;11.20;98.30
12125;DHT22;6126;57.908;16.490;2022-10-22T12:28:59;11.50;98.40
12125;DHT22;6126;57.908;16.490;2022-10-22T12:31:27;11.80;98.50
12125;DHT22;6126;57.908;16.490;2022-10-22T12:34:00;11.60;98.40
12125;DHT22;6126;57.908;16.490;2022-10-22T12:36:27;11.60;98.40
12125;DHT22;6126;57.908;16.490;2022-10-22T12:38:59;11.60;98.30
12125;DHT22;6126;57.908;16.490;2022-10-22T12:41:34;11.60;98.30
12125;DHT22;6126;57.908;16.490;2022-10-22T12:44:03;11.60;98.30
12125;DHT22;6126;57.908;16.490;2022-10-22T12:46:32;11.50;98.20
12125;DHT22;6126;57.908;16.490;2022-10-22T12:49:03;11.40;98.10
12125;DHT22;6126;57.908;16.490;2022-10-22T12:51:32;11.50;98.20
12125;DHT22;6126;57.908;16.490;2022-10-22T12:54:07;11.30;98.10
12125;DHT22;6126;57.908;16.490;2022-10-22T12:56:38;11.40;98.20
12125;DHT22;6126;57.908;16.490;2022-10-22T12:59:12;11.30;98.10
12125;DHT22;6126;57.908;16.490;2022-10-22T13:01:41;11.40;98.20
12125;DHT22;6126;57.908;16.490;2022-10-22T13:04:20;11.50;98.30
12125;DHT22;6126;57.908;16.490;2022-10-22T13:09:45;11.30;98.30
12125;DHT22;6126;57.908;16.490;2022-10-22T13:12:13;11.50;98.30
12125;DHT22;6126;57.908;16.490;2022-10-22T13:14:43;11.30;98.20
12125;DHT22;6126;57.908;16.490;2022-10-22T13:22:37;11.40;98.30
12125;DHT22;6126;57.908;16.490;2022-10-22T13:27:52;11.30;98.30
12125;DHT22;6126;57.908;16.490;2022-10-22T13:30:29;11.40;98.30
12125;DHT22;6126;57.908;16.490;2022-10-22T13:33:05;11.40;98.30
12125;DHT22;6126;57.908;16.490;2022-10-22T13:35:35;11.10;98.20
12125;DHT22;6126;57.908;16.490;2022-10-22T13:38:11;11.30;98.30
12125;DHT22;6126;57.908;16.490;2022-10-22T13:40:41;11.50;98.40
12125;DHT22;6126;57.908;16.490;2022-10-22T13:43:07;11.10;98.20
12125;DHT22;6126;57.908;16.490;2022-10-22T13:45:33;11.00;98.20
12125;DHT22;6126;57.908;16.490;2022-10-22T13:47:59;11.50;98.40
12125;DHT22;6126;57.908;16.490;2022-10-22T13:50:25;11.10;98.20
12125;DHT22;6126;57.908;16.490;2022-10-22T13:52:53;11.30;98.30
12125;DHT22;6126;57.908;16.490;2022-10-22T13:55:28;11.20;98.30
12125;DHT22;6126;57.908;16.490;2022-10-22T13:58:21;11.40;98.40
12125;DHT22;6126;57.908;16.490;2022-10-22T14:00:54;11.30;98.40
12125;DHT22;6126;57.908;16.490;2022-10-22T14:03:28;11.20;98.30
12125;DHT22;6126;57.908;16.490;2022-10-22T14:05:57;11.20;98.30
12125;DHT22;6126;57.908;16.490;2022-10-22T14:08:24;11.30;98.40
12125;DHT22;6126;57.908;16.490;2022-10-22T14:10:52;11.30;98.40
12125;DHT22;6126;57.908;16.490;2022-10-22T14:13:19;11.10;98.30
12125;DHT22;6126;57.908;16.490;2022-10-22T14:15:48;11.00;98.30
12125;DHT22;6126;57.908;16.490;2022-10-22T14:18:23;11.00;98.30
12125;DHT22;6126;57.908;16.490;2022-10-22T14:20:54;11.50;98.50
12125;DHT22;6126;57.908;16.490;2022-10-22T14:23:25;11.40;98.50
12125;DHT22;6126;57.908;16.490;2022-10-22T14:25:54;11.40;98.40
12125;DHT22;6126;57.908;16.490;2022-10-22T14:28:20;11.40;98.50
12125;DHT22;6126;57.908;16.490;2022-10-22T14:30:47;11.10;98.30
12125;DHT22;6126;57.908;16.490;2022-10-22T14:33:28;11.00;98.30
12125;DHT22;6126;57.908;16.490;2022-10-22T14:35:57;10.90;98.30
12125;DHT22;6126;57.908;16.490;2022-10-22T14:38:24;11.00;98.30
12125;DHT22;6126;57.908;16.490;2022-10-22T14:40:50;11.00;98.30
12125;DHT22;6126;57.908;16.490;2022-10-22T14:43:22;11.20;98.40
12125;DHT22;6126;57.908;16.490;2022-10-22T14:45:49;11.20;98.40
12125;DHT22;6126;57.908;16.490;2022-10-22T14:48:16;11.00;98.40
12125;DHT22;6126;57.908;16.490;2022-10-22T14:50:47;11.00;98.40
12125;DHT22;6126;57.908;16.490;2022-10-22T14:53:13;11.20;98.50
12125;DHT22;6126;57.908;16.490;2022-10-22T14:55:41;11.30;98.60
12125;DHT22;6126;57.908;16.490;2022-10-22T14:58:10;11.10;98.50
12125;DHT22;6126;57.908;16.490;2022-10-22T15:00:36;10.90;98.40
12125;DHT22;6126;57.908;16.490;2022-10-22T15:03:04;10.90;98.40
12125;DHT22;6126;57.908;16.490;2022-10-22T15:05:30;10.80;98.40
12125;DHT22;6126;57.908;16.490;2022-10-22T15:07:56;11.00;98.40
12125;DHT22;6126;57.908;16.490;2022-10-22T15:10:24;11.00;98.50
12125;DHT22;6126;57.908;16.490;2022-10-22T15:12:50;10.90;98.40
12125;DHT22;6126;57.908;16.490;2022-10-22T15:15:16;11.10;98.50
12125;DHT22;6126;57.908;16.490;2022-10-22T15:17:42;11.00;98.50
12125;DHT22;6126;57.908;16.490;2022-10-22T15:20:08;11.00;98.50
12125;DHT22;6126;57.908;16.490;2022-10-22T15:22:34;11.00;98.50
12125;DHT22;6126;57.908;16.490;2022-10-22T15:25:02;10.80;98.40
12125;DHT22;6126;57.908;16.490;2022-10-22T15:27:30;10.70;98.40
12125;DHT22;6126;57.908;16.490;2022-10-22T15:29:56;10.90;98.50
12125;DHT22;6126;57.908;16.490;2022-10-22T15:32:25;11.00;98.50
12125;DHT22;6126;57.908;16.490;2022-10-22T15:34:54;10.90;98.50
12125;DHT22;6126;57.908;16.490;2022-10-22T15:37:21;11.00;98.60
12125;DHT22;6126;57.908;16.490;2022-10-22T15:39:47;10.90;98.50
12125;DHT22;6126;57.908;16.490;2022-10-22T15:42:13;10.90;98.50
12125;DHT22;6126;57.908;16.490;2022-10-22T15:44:40;10.70;98.40
12125;DHT22;6126;57.908;16.490;2022-10-22T15:47:06;10.70;98.50
12125;DHT22;6126;57.908;16.490;2022-10-22T15:49:34;10.60;98.40
12125;DHT22;6126;57.908;16.490;2022-10-22T15:52:02;10.80;98.50
12125;DHT22;6126;57.908;16.490;2022-10-22T15:54:30;10.80;98.50
12125;DHT22;6126;57.908;16.490;2022-10-22T15:56:56;10.70;98.50
12125;DHT22;6126;57.908;16.490;2022-10-22T15:59:23;10.60;98.50
12125;DHT22;6126;57.908;16.490;2022-10-22T16:01:50;10.60;98.40
12125;DHT22;6126;57.908;16.490;2022-10-22T16:04:16;10.70;98.50
12125;DHT22;6126;57.908;16.490;2022-10-22T16:06:50;10.80;98.60
12125;DHT22;6126;57.908;16.490;2022-10-22T16:09:21;10.80;98.60
12125;DHT22;6126;57.908;16.490;2022-10-22T16:11:48;10.50;98.40
12125;DHT22;6126;57.908;16.490;2022-10-22T16:14:17;10.50;98.50
12125;DHT22;6126;57.908;16.490;2022-10-22T16:16:50;10.60;98.50
12125;DHT22;6126;57.908;16.490;2022-10-22T16:19:19;10.80;98.60
12125;DHT22;6126;57.908;16.490;2022-10-22T16:21:48;10.80;98.70
12125;DHT22;6126;57.908;16.490;2022-10-22T16:24:15;10.70;98.60
12125;DHT22;6126;57.908;16.490;2022-10-22T16:26:41;10.40;98.50
12125;DHT22;6126;57.908;16.490;2022-10-22T16:29:07;10.70;98.60
12125;DHT22;6126;57.908;16.490;2022-10-22T16:31:35;10.30;98.40
12125;DHT22;6126;57.908;16.490;2022-10-22T16:34:01;10.70;98.70
12125;DHT22;6126;57.908;16.490;2022-10-22T16:36:27;10.60;98.60
12125;DHT22;6126;57.908;16.490;2022-10-22T16:38:53;10.70;98.70
12125;DHT22;6126;57.908;16.490;2022-10-22T16:41:23;10.30;98.50
12125;DHT22;6126;57.908;16.490;2022-10-22T16:43:51;10.60;98.70
12125;DHT22;6126;57.908;16.490;2022-10-22T16:46:24;10.20;98.50
12125;DHT22;6126;57.908;16.490;2022-10-22T16:48:51;10.50;98.60
12125;DHT22;6126;57.908;16.490;2022-10-22T16:51:20;10.40;98.60
12125;DHT22;6126;57.908;16.490;2022-10-22T16:53:49;10.50;98.60
12125;DHT22;6126;57.908;16.490;2022-10-22T16:56:17;10.20;98.50
12125;DHT22;6126;57.908;16.490;2022-10-22T16:58:52;10.40;98.60
12125;DHT22;6126;57.908;16.490;2022-10-22T17:01:21;10.40;98.60
12125;DHT22;6126;57.908;16.490;2022-10-22T17:03:50;10.40;98.60
12125;DHT22;6126;57.908;16.490;2022-10-22T17:06:16;10.30;98.60
12125;DHT22;6126;57.908;16.490;2022-10-22T17:08:42;10.30;98.60
12125;DHT22;6126;57.908;16.490;2022-10-22T17:11:10;10.40;98.60
12125;DHT22;6126;57.908;16.490;2022-10-22T17:13:39;10.30;98.50
12125;DHT22;6126;57.908;16.490;2022-10-22T17:16:10;10.30;98.60
12125;DHT22;6126;57.908;16.490;2022-10-22T17:18:39;10.20;98.50
12125;DHT22;6126;57.908;16.490;2022-10-22T17:21:08;10.40;98.60
12125;DHT22;6126;57.908;16.490;2022-10-22T17:23:35;10.20;98.50
12125;DHT22;6126;57.908;16.490;2022-10-22T17:26:04;10.30;98.60
12125;DHT22;6126;57.908;16.490;2022-10-22T17:28:32;10.20;98.60
12125;DHT22;6126;57.908;16.490;2022-10-22T17:33:41;10.20;98.60
12125;DHT22;6126;57.908;16.490;2022-10-22T17:36:08;10.20;98.60
12125;DHT22;6126;57.908;16.490;2022-10-22T17:38:36;10.10;98.60
12125;DHT22;6126;57.908;16.490;2022-10-22T17:41:03;10.20;99.00
12125;DHT22;6126;57.908;16.490;2022-10-22T17:43:29;10.00;98.50
12125;DHT22;6126;57.908;16.490;2022-10-22T17:46:06;9.90;99.00
12125;DHT22;6126;57.908;16.490;2022-10-22T17:48:35;10.30;98.70
12125;DHT22;6126;57.908;16.490;2022-10-22T17:51:08;10.10;98.60
12125;DHT22;6126;57.908;16.490;2022-10-22T17:53:35;10.20;98.70